Phoenix, Arizona
Traffic Map
Current Weather Conditions
Phoenix, Arizona
Clear
Clear
83°
Feels Like: 83°
Wind Chill: 83° Ceiling: Unl
Heat Index: 83° Visibility: 10mi
Dew Point: 42° Wind: 7mph
Humidity: 24% Direction: 100° (E)
Pressure: 29.85in Gusts: 0mph
Raw Report DataKPHX 211151Z 10006KT 10SM CLR 28/06 A2985 RMK AO2 SLP085 T02830056 10344 20283 53013
Traffic Incident Summary
Active as of:
Severity:
Category:
InformationThere was an issue retrieving the traffic information for this location. Please try a different location or try again shortly.
Advertisements